Friday, November 15, 2019, 6:49 PM EST
Back to Local

KGON, Groton/new London Airport

Location: Groton, CT, United States Lat: 41.333
Local Time: 6:49 PM EST (23:49 GMT) Lon: -72.05
Time Zone: US/Eastern Elev: 9 ft

Show me the last for .
Show Decoded

2019-11-15 17:56 METAR KGON 152256Z 27005KT 10SM CLR 08/00 A3011 RMK AO2 SLP196 T00830000 $ =
2019-11-15 16:56 METAR KGON 152156Z 26009KT 10SM CLR 08/00 A3009 RMK AO2 SLP190 T00830000 =
2019-11-15 15:56 METAR KGON 152056Z 27008KT 10SM CLR 09/M02 A3009 RMK AO2 SLP189 T00941017 56007
                 =
2019-11-15 14:56 METAR KGON 151956Z 25009KT 10SM CLR 10/M01 A3010 RMK AO2 SLP192 T01001011 =
2019-11-15 13:56 METAR KGON 151856Z 27013KT 10SM CLR 11/01 A3009 RMK AO2 SLP190 T01060006 =
2019-11-15 12:56 METAR KGON 151756Z 24011KT 10SM CLR 11/02 A3011 RMK AO2 SLP196 T01060017 10106
                 20017 58029 =
2019-11-15 11:56 METAR KGON 151656Z 23013G18KT 10SM CLR 11/02 A3014 RMK AO2 SLP205 T01060022 =
2019-11-15 10:56 METAR KGON 151556Z 24011KT 10SM CLR 10/01 A3018 RMK AO2 SLP218 T01000006 =
2019-11-15 09:56 METAR KGON 151456Z 24010KT 10SM CLR 09/M02 A3020 RMK AO2 SLP226 T00941017 58009
                 =
2019-11-15 08:56 METAR KGON 151356Z 26009KT 10SM SCT060 08/M02 A3022 RMK AO2 SLP233 T00831017 =
2019-11-15 07:56 METAR KGON 151256Z 29004KT 10SM BKN060 OVC070 04/M03 A3023 RMK AO2 SLP237
                 T00391033 =
2019-11-15 06:56 METAR KGON 151156Z 00000KT 10SM OVC065 02/M02 A3023 RMK AO2 SLP236 T00171017
                 10067 21011 50002 =
2019-11-15 05:56 METAR KGON 151056Z AUTO 35003KT 10SM OVC060 M01/M03 A3023 RMK AO2 SLP237
                 T10061028 =
2019-11-15 04:56 METAR KGON 150956Z AUTO 02003KT 10SM CLR 00/M04 A3023 RMK AO2 SLP236 T00001039 =
2019-11-15 03:56 METAR KGON 150856Z AUTO 32005KT 10SM CLR 01/M04 A3022 RMK AO2 SLP234 T00111044
                 58013 =
2019-11-15 02:56 METAR KGON 150756Z AUTO 29005KT 10SM CLR 04/M03 A3023 RMK AO2 SLP237 T00391033 =
2019-11-15 01:56 METAR KGON 150656Z AUTO 29006KT 10SM CLR 05/M02 A3025 RMK AO2 SLP244 T00501022 =
2019-11-15 00:56 METAR KGON 150556Z AUTO 30007KT 10SM CLR 07/M01 A3026 RMK AO2 SLP246 T00671006
                 10094 20028 58006 =
2019-11-14 23:56 METAR KGON 150456Z AUTO 24015G21KT 10SM CLR 09/00 A3027 RMK AO2 SLP249 T00890000
                 400941067 =
2019-11-14 22:56 METAR KGON 150356Z AUTO 30005KT 10SM FEW024 08/04 A3027 RMK AO2 SLP251 T00780039
                 =
2019-11-14 21:56 METAR KGON 150256Z 25010G18KT 10SM BKN037 09/04 A3028 RMK AO2 SLP252 T00940044
                 55011 =
2019-11-14 20:56 METAR KGON 150156Z 26011KT 10SM CLR 09/04 A3027 RMK AO2 SLP251 T00890044 =
2019-11-14 19:56 METAR KGON 150056Z 23009KT 10SM CLR 08/04 A3029 RMK AO2 SLP257 T00830044 =
2019-11-14 18:56 METAR KGON 142356Z 04004KT 10SM CLR 03/01 A3031 RMK AO2 SLP263 T00280006 10094
                 20028 58010 =

Support USWX by starting your Amazon purchase here.